CYPRPAKT

Guest
Details From CYPR - Prince Rupert
To PAKT - KETCHIKAN INTL
Flight Number -
Tags generated
Created
Modified
Stats Distance 78 nm / 144 km
Max Altitude 6,600 ft / 2,012 m
Waypoints 3
Social Downloads 1
Likes 0
Share VATSIM

Download

Looking for another format? Having issues loading an existing format? Contact us
Advertisement - Login to hide

Notes

Basic altitude profile: - Ascent Rate: 500ft/min - Ascent Speed: 150kts - Cruise Altitude: 5000ft - Cruise Speed: 200kts - Descent Rate: 1000ft/min - Descent Speed: 120kts Options: - Use NATs: yes - Use PACOTS: yes - Use low airways: yes - Use high airways: no

Route

CYPR AGPAL PAKT

ID Type Via Altitude Latitude Longitude Leg Dist Tot Dist Heading (true) Name
O CYPR APT - 0 ft / 0 m 54.28611˚ -130.44472˚ - 0 nm - Prince Rupert
AGPAL FIX - 6,600 ft / 2,012 m 54.52917˚ -130.77944˚ 18 nm 18 nm 321° / 321° -
O PAKT APT - 0 ft / 0 m 55.35554˚ -131.71374˚ 59 nm 77 nm 327° / 327° KETCHIKAN INTL

Altitude Profile

Advertisement - Login to hide

CYPR

Details ICAO CYPR (YPR)
Name Prince Rupert
Region Canada
Timezone America/Vancouver (UTC-8.0)
Stats Elevation 116 ft / 35 m (AMSL)
Location 54.286114° -130.444717°
Runways 1
Magnetic Variation 18.257° E

METAR

CYPR 160523Z AUTO 14008KT 9SM -RA SCT021 BKN030 BKN035 04/04 A3016 RMK SLP215

Decode

TAF

TAF CYPR 160038Z 1601/1613 25010G20KT P6SM SCT020 BKN060 TEMPO 1601/1613 4SM -RA BR OVC020 BECMG 1603/1605 14010G20KT RMK FCST BASED ON AUTO OBS. NXT FCST BY 160700Z

Decode

Departure Runways

ID Width Length Bearing (true) Bearing (mag) Surface Threshold Offset Overrun Length
13 200 ft / 61 m 6,043 ft / 1,842 m 150.73° 132.47° Asphalt 0 ft / 0 m 0 ft / 0 m
31 200 ft / 61 m 6,043 ft / 1,842 m 330.74° 312.48° Asphalt 0 ft / 0 m 0 ft / 0 m

PAKT

Details ICAO PAKT (KTN)
Name KETCHIKAN INTL
Region USA (Alaska)
Timezone Unknown (UTC+0.0)
Stats Elevation 88 ft / 27 m (AMSL)
Location 55.355545° -131.713737°
Runways 1
Magnetic Variation 18.533° E

METAR

PAKT 160453Z 16006KT 10SM SCT019 BKN026 OVC035 04/03 A3012

Decode

TAF

PAKT 152342Z 1600/1624 14008KT P6SM BKN035 OVC050 FM160800 15013G23KT 6SM -RA BR BKN030 OVC050 FM161500 14018G28KT 4SM RA BR SCT008 OVC015 PROB30 1618/1624 2SM RA BR BKN008 OVC015 AMD LTD TO CLD VIS AND WIND 1606/1615

Decode

Destination Runways

ID Width Length Bearing (true) Bearing (mag) Surface Threshold Offset Overrun Length
11 150 ft / 46 m 7,485 ft / 2,281 m 135.66° 117.13° Asphalt 0 ft / 0 m 200 ft / 61 m
29 150 ft / 46 m 7,485 ft / 2,281 m 315.68° 297.15° Asphalt 0 ft / 0 m 100 ft / 30 m

Approach Navaids

Runway Type Ident Frequency Range Bearing (true) Bearing (mag) Slope Elevation
11 Localiser IECH 109.30 MHz 18 nm / 33 km 135.69° 117.16° - 66 ft / 20 m (AMSL)
11 Glidescope IECH 109.30 MHz 10 nm / 19 km 135.67° 117.14° 3.61° 76 ft / 23 m (AMSL)
11 DME IECH 109.30 MHz 18 nm / 33 km - - - 98 ft / 30 m (AMSL)

Popular Alternatives